PWSweather.com
Personal Weather Stations
Station Observations
KTXNORTH9
Hometown, North Richland Hills, Tx, North Richland Hills, TX 76180

Hometown, North Richland Hills, TxNorth Richland Hills, TX 76180

Lat: 32.859434, Lon: -97.202011

Elevation: 611

Station Type: Davis Vanguard Pro II

www.spradling.org

High Low Average
Temperature 86.2°F30.1°C 63.0°F17.2°C 73.5°F23.1°C
Dew Point 65.9°F18.8°C 57.1°F13.9°C 61.1°F16.2°C
Winds 12.0 mph 19.3 kmh Calm Calm 2.0 mph S3.2 kmh S
Wind Gusts 16.0 mph25.7 kmh -- 4.0 mph6.4 kmh
Humidity 89% 39% 68%
Pressure 30.08 in1018.6 mb 29.94 in1013.9 mb -
Precipitation 0.00 in0.0 mm - -
Hour Temp Dew Point Humidity Winds Wind Gusts Pressure Precip Precip Rate Daily Precip Total
12:00 AM 71.7°F22.1°C 63.0°F17.2°C 74% 2.0 mph S3.2 kmh S 6.0 mph9.7 kmh 30.02 in1016.6 mb 0.00 in0.0 mm 0.00 in/hr0.0 mm/hr 0.00 in0.0 mm
12:05 AM 71.6°F22.0°C 62.9°F17.2°C 74% 1.0 mph S1.6 kmh S 5.0 mph8.0 kmh 30.01 in1016.3 mb 0.00 in0.0 mm 0.00 in/hr0.0 mm/hr 0.00 in0.0 mm
12:10 AM 71.5°F21.9°C 62.8°F17.1°C 74% 4.0 mph S6.4 kmh S 4.0 mph6.4 kmh 30.02 in1016.6 mb 0.00 in0.0 mm 0.00 in/hr0.0 mm/hr 0.00 in0.0 mm
12:15 AM 71.3°F21.8°C 63.0°F17.2°C 75% Calm Calm -- 30.02 in1016.6 mb 0.00 in0.0 mm 0.00 in/hr0.0 mm/hr 0.00 in0.0 mm
12:20 AM 71.2°F21.8°C 62.9°F17.2°C 75% Calm Calm -- 30.02 in1016.6 mb 0.00 in0.0 mm 0.00 in/hr0.0 mm/hr 0.00 in0.0 mm
12:25 AM 71.1°F21.7°C 62.8°F17.1°C 75% 1.0 mph S1.6 kmh S 1.0 mph1.6 kmh 30.02 in1016.6 mb 0.00 in0.0 mm 0.00 in/hr0.0 mm/hr 0.00 in0.0 mm
12:30 AM 71.0°F21.7°C 62.7°F17.1°C 75% Calm Calm -- 30.02 in1016.6 mb 0.00 in0.0 mm 0.00 in/hr0.0 mm/hr 0.00 in0.0 mm
12:35 AM 70.8°F21.6°C 62.5°F16.9°C 75% Calm Calm -- 30.02 in1016.6 mb 0.00 in0.0 mm 0.00 in/hr0.0 mm/hr 0.00 in0.0 mm
12:40 AM 70.7°F21.5°C 62.8°F17.1°C 76% Calm Calm -- 30.02 in1016.6 mb 0.00 in0.0 mm 0.00 in/hr0.0 mm/hr 0.00 in0.0 mm
12:45 AM 70.5°F21.4°C 62.2°F16.8°C 75% Calm Calm -- 30.02 in1016.6 mb 0.00 in0.0 mm 0.00 in/hr0.0 mm/hr 0.00 in0.0 mm
12:50 AM 70.4°F21.3°C 62.5°F16.9°C 76% Calm Calm -- 30.02 in1016.6 mb 0.00 in0.0 mm 0.00 in/hr0.0 mm/hr 0.00 in0.0 mm
12:55 AM 70.1°F21.2°C 62.6°F17.0°C 77% Calm Calm -- 30.02 in1016.6 mb 0.00 in0.0 mm 0.00 in/hr0.0 mm/hr 0.00 in0.0 mm
01:00 AM 69.9°F21.1°C 62.4°F16.9°C 77% Calm Calm -- 30.02 in1016.6 mb 0.00 in0.0 mm 0.00 in/hr0.0 mm/hr 0.00 in0.0 mm
01:05 AM 69.7°F20.9°C 62.2°F16.8°C 77% Calm Calm -- 30.02 in1016.6 mb 0.00 in0.0 mm 0.00 in/hr0.0 mm/hr 0.00 in0.0 mm
01:10 AM 69.5°F20.8°C 62.4°F16.9°C 78% Calm Calm -- 30.02 in1016.6 mb 0.00 in0.0 mm 0.00 in/hr0.0 mm/hr 0.00 in0.0 mm
01:15 AM 69.3°F20.7°C 62.2°F16.8°C 78% Calm Calm -- 30.02 in1016.6 mb 0.00 in0.0 mm 0.00 in/hr0.0 mm/hr 0.00 in0.0 mm
01:20 AM 69.2°F20.7°C 62.1°F16.7°C 78% Calm Calm -- 30.02 in1016.6 mb 0.00 in0.0 mm 0.00 in/hr0.0 mm/hr 0.00 in0.0 mm
01:25 AM 69.0°F20.6°C 62.2°F16.8°C 79% Calm Calm -- 30.02 in1016.6 mb 0.00 in0.0 mm 0.00 in/hr0.0 mm/hr 0.00 in0.0 mm
01:30 AM 68.7°F20.4°C 61.9°F16.6°C 79% Calm Calm -- 30.02 in1016.6 mb 0.00 in0.0 mm 0.00 in/hr0.0 mm/hr 0.00 in0.0 mm
01:35 AM 68.5°F20.3°C 61.7°F16.5°C 79% Calm Calm -- 30.02 in1016.6 mb 0.00 in0.0 mm 0.00 in/hr0.0 mm/hr 0.00 in0.0 mm
01:40 AM 68.2°F20.1°C 61.5°F16.4°C 79% Calm Calm -- 30.02 in1016.6 mb 0.00 in0.0 mm 0.00 in/hr0.0 mm/hr 0.00 in0.0 mm
01:45 AM 68.0°F20.0°C 61.6°F16.4°C 80% Calm Calm -- 30.02 in1016.6 mb 0.00 in0.0 mm 0.00 in/hr0.0 mm/hr 0.00 in0.0 mm
01:50 AM 67.7°F19.8°C 61.3°F16.3°C 80% Calm Calm -- 30.02 in1016.6 mb 0.00 in0.0 mm 0.00 in/hr0.0 mm/hr 0.00 in0.0 mm
01:55 AM 67.6°F19.8°C 61.2°F16.2°C 80% Calm Calm -- 30.01 in1016.3 mb 0.00 in0.0 mm 0.00 in/hr0.0 mm/hr 0.00 in0.0 mm
02:00 AM 67.3°F19.6°C 61.3°F16.3°C 81% Calm Calm -- 30.01 in1016.3 mb 0.00 in0.0 mm 0.00 in/hr0.0 mm/hr 0.00 in0.0 mm
02:05 AM 67.1°F19.5°C 61.1°F16.2°C 81% Calm Calm -- 30.01 in1016.3 mb 0.00 in0.0 mm 0.00 in/hr0.0 mm/hr 0.00 in0.0 mm
02:10 AM 66.8°F19.3°C 60.8°F16.0°C 81% Calm Calm -- 30.01 in1016.3 mb 0.00 in0.0 mm 0.00 in/hr0.0 mm/hr 0.00 in0.0 mm
02:15 AM 66.7°F19.3°C 61.0°F16.1°C 82% Calm Calm -- 30.00 in1015.9 mb 0.00 in0.0 mm 0.00 in/hr0.0 mm/hr 0.00 in0.0 mm
02:20 AM 66.5°F19.2°C 60.8°F16.0°C 82% Calm Calm -- 30.01 in1016.3 mb 0.00 in0.0 mm 0.00 in/hr0.0 mm/hr 0.00 in0.0 mm
02:25 AM 66.3°F19.1°C 60.7°F15.9°C 82% Calm Calm -- 30.01 in1016.3 mb 0.00 in0.0 mm 0.00 in/hr0.0 mm/hr 0.00 in0.0 mm
02:30 AM 66.1°F18.9°C 60.8°F16.0°C 83% Calm Calm -- 30.01 in1016.3 mb 0.00 in0.0 mm 0.00 in/hr0.0 mm/hr 0.00 in0.0 mm
02:35 AM 66.0°F18.9°C 60.7°F15.9°C 83% Calm Calm -- 30.01 in1016.3 mb 0.00 in0.0 mm 0.00 in/hr0.0 mm/hr 0.00 in0.0 mm
02:40 AM 65.8°F18.8°C 60.5°F15.8°C 83% Calm Calm -- 30.01 in1016.3 mb 0.00 in0.0 mm 0.00 in/hr0.0 mm/hr 0.00 in0.0 mm
02:45 AM 65.7°F18.7°C 60.4°F15.8°C 83% Calm Calm -- 30.00 in1015.9 mb 0.00 in0.0 mm 0.00 in/hr0.0 mm/hr 0.00 in0.0 mm
02:50 AM 65.6°F18.7°C 60.6°F15.9°C 84% 1.0 mph S1.6 kmh S 1.0 mph1.6 kmh 30.00 in1015.9 mb 0.00 in0.0 mm 0.00 in/hr0.0 mm/hr 0.00 in0.0 mm
02:55 AM 65.5°F18.6°C 60.5°F15.8°C 84% Calm Calm -- 30.00 in1015.9 mb 0.00 in0.0 mm 0.00 in/hr0.0 mm/hr 0.00 in0.0 mm
03:00 AM 65.3°F18.5°C 60.4°F15.8°C 84% Calm Calm 2.0 mph3.2 kmh 30.00 in1015.9 mb 0.00 in0.0 mm 0.00 in/hr0.0 mm/hr 0.00 in0.0 mm
03:05 AM 65.2°F18.4°C 60.3°F15.7°C 84% Calm Calm -- 30.01 in1016.3 mb 0.00 in0.0 mm 0.00 in/hr0.0 mm/hr 0.00 in0.0 mm
03:10 AM 65.2°F18.4°C 60.3°F15.7°C 84% Calm Calm -- 30.01 in1016.3 mb 0.00 in0.0 mm 0.00 in/hr0.0 mm/hr 0.00 in0.0 mm
03:15 AM 65.1°F18.4°C 60.2°F15.7°C 84% Calm Calm -- 30.01 in1016.3 mb 0.00 in0.0 mm 0.00 in/hr0.0 mm/hr 0.00 in0.0 mm
03:20 AM 65.0°F18.3°C 60.4°F15.8°C 85% Calm Calm -- 30.01 in1016.3 mb 0.00 in0.0 mm 0.00 in/hr0.0 mm/hr 0.00 in0.0 mm
03:25 AM 64.9°F18.3°C 60.0°F15.6°C 84% Calm Calm -- 30.01 in1016.3 mb 0.00 in0.0 mm 0.00 in/hr0.0 mm/hr 0.00 in0.0 mm
03:30 AM 64.9°F18.3°C 60.0°F15.6°C 84% Calm Calm -- 30.02 in1016.6 mb 0.00 in0.0 mm 0.00 in/hr0.0 mm/hr 0.00 in0.0 mm
03:35 AM 64.8°F18.2°C 59.9°F15.5°C 84% Calm Calm -- 30.01 in1016.3 mb 0.00 in0.0 mm 0.00 in/hr0.0 mm/hr 0.00 in0.0 mm
03:40 AM 64.7°F18.2°C 59.8°F15.4°C 84% Calm Calm -- 30.01 in1016.3 mb 0.00 in0.0 mm 0.00 in/hr0.0 mm/hr 0.00 in0.0 mm
03:45 AM 64.7°F18.2°C 60.1°F15.6°C 85% Calm Calm -- 30.01 in1016.3 mb 0.00 in0.0 mm 0.00 in/hr0.0 mm/hr 0.00 in0.0 mm
03:50 AM 64.6°F18.1°C 60.0°F15.6°C 85% Calm Calm -- 30.01 in1016.3 mb 0.00 in0.0 mm 0.00 in/hr0.0 mm/hr 0.00 in0.0 mm
03:55 AM 64.5°F18.1°C 59.9°F15.5°C 85% Calm Calm -- 30.01 in1016.3 mb 0.00 in0.0 mm 0.00 in/hr0.0 mm/hr 0.00 in0.0 mm
04:00 AM 64.4°F18.0°C 59.8°F15.4°C 85% Calm Calm -- 30.01 in1016.3 mb 0.00 in0.0 mm 0.00 in/hr0.0 mm/hr 0.00 in0.0 mm
04:05 AM 64.4°F18.0°C 59.8°F15.4°C 85% Calm Calm -- 30.02 in1016.6 mb 0.00 in0.0 mm 0.00 in/hr0.0 mm/hr 0.00 in0.0 mm
04:10 AM 64.3°F17.9°C 59.7°F15.4°C 85% Calm Calm -- 30.01 in1016.3 mb 0.00 in0.0 mm 0.00 in/hr0.0 mm/hr 0.00 in0.0 mm
04:15 AM 64.1°F17.8°C 59.5°F15.3°C 85% Calm Calm -- 30.01 in1016.3 mb 0.00 in0.0 mm 0.00 in/hr0.0 mm/hr 0.00 in0.0 mm
04:20 AM 64.1°F17.8°C 59.5°F15.3°C 85% Calm Calm -- 30.01 in1016.3 mb 0.00 in0.0 mm 0.00 in/hr0.0 mm/hr 0.00 in0.0 mm
04:25 AM 64.0°F17.8°C 59.4°F15.2°C 85% 2.0 mph S3.2 kmh S 2.0 mph3.2 kmh 30.00 in1015.9 mb 0.00 in0.0 mm 0.00 in/hr0.0 mm/hr 0.00 in0.0 mm
04:30 AM 63.9°F17.7°C 59.3°F15.2°C 85% 1.0 mph S1.6 kmh S 1.0 mph1.6 kmh 30.00 in1015.9 mb 0.00 in0.0 mm 0.00 in/hr0.0 mm/hr 0.00 in0.0 mm
04:35 AM 63.8°F17.7°C 59.2°F15.1°C 85% Calm Calm 2.0 mph3.2 kmh 30.00 in1015.9 mb 0.00 in0.0 mm 0.00 in/hr0.0 mm/hr 0.00 in0.0 mm
04:40 AM 63.7°F17.6°C 59.1°F15.1°C 85% Calm Calm 4.0 mph6.4 kmh 30.00 in1015.9 mb 0.00 in0.0 mm 0.00 in/hr0.0 mm/hr 0.00 in0.0 mm
04:45 AM 63.6°F17.6°C 59.0°F15.0°C 85% 1.0 mph S1.6 kmh S 2.0 mph3.2 kmh 30.00 in1015.9 mb 0.00 in0.0 mm 0.00 in/hr0.0 mm/hr 0.00 in0.0 mm
04:50 AM 63.6°F17.6°C 59.0°F15.0°C 85% Calm Calm -- 30.00 in1015.9 mb 0.00 in0.0 mm 0.00 in/hr0.0 mm/hr 0.00 in0.0 mm
04:55 AM 63.7°F17.6°C 59.1°F15.1°C 85% Calm Calm 1.0 mph1.6 kmh 30.00 in1015.9 mb 0.00 in0.0 mm 0.00 in/hr0.0 mm/hr 0.00 in0.0 mm
05:00 AM 63.7°F17.6°C 59.1°F15.1°C 85% 1.0 mph S1.6 kmh S 2.0 mph3.2 kmh 30.00 in1015.9 mb 0.00 in0.0 mm 0.00 in/hr0.0 mm/hr 0.00 in0.0 mm
05:05 AM 63.7°F17.6°C 59.1°F15.1°C 85% 1.0 mph S1.6 kmh S 5.0 mph8.0 kmh 29.99 in1015.6 mb 0.00 in0.0 mm 0.00 in/hr0.0 mm/hr 0.00 in0.0 mm
05:10 AM 63.7°F17.6°C 59.1°F15.1°C 85% 2.0 mph S3.2 kmh S 4.0 mph6.4 kmh 30.00 in1015.9 mb 0.00 in0.0 mm 0.00 in/hr0.0 mm/hr 0.00 in0.0 mm
05:15 AM 63.7°F17.6°C 59.1°F15.1°C 85% 2.0 mph S3.2 kmh S 2.0 mph3.2 kmh 30.00 in1015.9 mb 0.00 in0.0 mm 0.00 in/hr0.0 mm/hr 0.00 in0.0 mm
05:20 AM 63.8°F17.7°C 59.2°F15.1°C 85% 4.0 mph S6.4 kmh S 6.0 mph9.7 kmh 30.00 in1015.9 mb 0.00 in0.0 mm 0.00 in/hr0.0 mm/hr 0.00 in0.0 mm
05:25 AM 63.9°F17.7°C 59.3°F15.2°C 85% 2.0 mph S3.2 kmh S 5.0 mph8.0 kmh 30.00 in1015.9 mb 0.00 in0.0 mm 0.00 in/hr0.0 mm/hr 0.00 in0.0 mm
05:30 AM 64.1°F17.8°C 59.5°F15.3°C 85% 4.0 mph S6.4 kmh S 4.0 mph6.4 kmh 30.00 in1015.9 mb 0.00 in0.0 mm 0.00 in/hr0.0 mm/hr 0.00 in0.0 mm
05:35 AM 64.2°F17.9°C 59.6°F15.3°C 85% 2.0 mph S3.2 kmh S 4.0 mph6.4 kmh 30.00 in1015.9 mb 0.00 in0.0 mm 0.00 in/hr0.0 mm/hr 0.00 in0.0 mm
05:40 AM 64.3°F17.9°C 59.4°F15.2°C 84% 1.0 mph S1.6 kmh S 5.0 mph8.0 kmh 30.00 in1015.9 mb 0.00 in0.0 mm 0.00 in/hr0.0 mm/hr 0.00 in0.0 mm
05:45 AM 64.4°F18.0°C 59.5°F15.3°C 84% 1.0 mph S1.6 kmh S 2.0 mph3.2 kmh 30.00 in1015.9 mb 0.00 in0.0 mm 0.00 in/hr0.0 mm/hr 0.00 in0.0 mm
05:50 AM 64.5°F18.1°C 59.6°F15.3°C 84% Calm Calm 2.0 mph3.2 kmh 30.00 in1015.9 mb 0.00 in0.0 mm 0.00 in/hr0.0 mm/hr 0.00 in0.0 mm
05:55 AM 64.5°F18.1°C 59.6°F15.3°C 84% Calm Calm -- 30.00 in1015.9 mb 0.00 in0.0 mm 0.00 in/hr0.0 mm/hr 0.00 in0.0 mm
06:00 AM 64.5°F18.1°C 59.6°F15.3°C 84% Calm Calm -- 30.01 in1016.3 mb 0.00 in0.0 mm 0.00 in/hr0.0 mm/hr 0.00 in0.0 mm
06:05 AM 64.5°F18.1°C 59.2°F15.1°C 83% Calm Calm -- 30.01 in1016.3 mb 0.00 in0.0 mm 0.00 in/hr0.0 mm/hr 0.00 in0.0 mm
06:10 AM 64.5°F18.1°C 59.2°F15.1°C 83% 1.0 mph S1.6 kmh S 1.0 mph1.6 kmh 30.01 in1016.3 mb 0.00 in0.0 mm 0.00 in/hr0.0 mm/hr 0.00 in0.0 mm
06:15 AM 64.4°F18.0°C 59.1°F15.1°C 83% Calm Calm -- 30.01 in1016.3 mb 0.00 in0.0 mm 0.00 in/hr0.0 mm/hr 0.00 in0.0 mm
06:20 AM 64.4°F18.0°C 59.5°F15.3°C 84% Calm Calm -- 30.01 in1016.3 mb 0.00 in0.0 mm 0.00 in/hr0.0 mm/hr 0.00 in0.0 mm
06:25 AM 64.3°F17.9°C 59.4°F15.2°C 84% Calm Calm -- 30.01 in1016.3 mb 0.00 in0.0 mm 0.00 in/hr0.0 mm/hr 0.00 in0.0 mm
06:30 AM 64.2°F17.9°C 58.9°F14.9°C 83% 1.0 mph S1.6 kmh S 1.0 mph1.6 kmh 30.01 in1016.3 mb 0.00 in0.0 mm 0.00 in/hr0.0 mm/hr 0.00 in0.0 mm
06:35 AM 64.1°F17.8°C 58.8°F14.9°C 83% Calm Calm -- 30.01 in1016.3 mb 0.00 in0.0 mm 0.00 in/hr0.0 mm/hr 0.00 in0.0 mm
06:40 AM 63.9°F17.7°C 59.0°F15.0°C 84% Calm Calm -- 30.01 in1016.3 mb 0.00 in0.0 mm 0.00 in/hr0.0 mm/hr 0.00 in0.0 mm
06:45 AM 63.8°F17.7°C 58.9°F14.9°C 84% Calm Calm -- 30.02 in1016.6 mb 0.00 in0.0 mm 0.00 in/hr0.0 mm/hr 0.00 in0.0 mm
06:50 AM 63.6°F17.6°C 58.7°F14.8°C 84% Calm Calm -- 30.02 in1016.6 mb 0.00 in0.0 mm 0.00 in/hr0.0 mm/hr 0.00 in0.0 mm
06:55 AM 63.5°F17.5°C 58.6°F14.8°C 84% Calm Calm -- 30.02 in1016.6 mb 0.00 in0.0 mm 0.00 in/hr0.0 mm/hr 0.00 in0.0 mm
07:00 AM 63.4°F17.4°C 58.8°F14.9°C 85% Calm Calm -- 30.02 in1016.6 mb 0.00 in0.0 mm 0.00 in/hr0.0 mm/hr 0.00 in0.0 mm
07:05 AM 63.4°F17.4°C 58.8°F14.9°C 85% Calm Calm -- 30.02 in1016.6 mb 0.00 in0.0 mm 0.00 in/hr0.0 mm/hr 0.00 in0.0 mm
07:10 AM 63.2°F17.3°C 58.6°F14.8°C 85% Calm Calm -- 30.03 in1016.9 mb 0.00 in0.0 mm 0.00 in/hr0.0 mm/hr 0.00 in0.0 mm
07:15 AM 63.2°F17.3°C 58.6°F14.8°C 85% Calm Calm -- 30.03 in1016.9 mb 0.00 in0.0 mm 0.00 in/hr0.0 mm/hr 0.00 in0.0 mm
07:20 AM 63.1°F17.3°C 58.9°F14.9°C 86% Calm Calm -- 30.03 in1016.9 mb 0.00 in0.0 mm 0.00 in/hr0.0 mm/hr 0.00 in0.0 mm
07:25 AM 63.0°F17.2°C 58.8°F14.9°C 86% Calm Calm -- 30.03 in1016.9 mb 0.00 in0.0 mm 0.00 in/hr0.0 mm/hr 0.00 in0.0 mm
07:30 AM 63.0°F17.2°C 58.8°F14.9°C 86% Calm Calm -- 30.03 in1016.9 mb 0.00 in0.0 mm 0.00 in/hr0.0 mm/hr 0.00 in0.0 mm
07:35 AM 63.0°F17.2°C 58.8°F14.9°C 86% Calm Calm -- 30.04 in1017.3 mb 0.00 in0.0 mm 0.00 in/hr0.0 mm/hr 0.00 in0.0 mm
07:40 AM 63.0°F17.2°C 59.1°F15.1°C 87% Calm Calm -- 30.04 in1017.3 mb 0.00 in0.0 mm 0.00 in/hr0.0 mm/hr 0.00 in0.0 mm
07:45 AM 63.1°F17.3°C 59.2°F15.1°C 87% Calm Calm -- 30.04 in1017.3 mb 0.00 in0.0 mm 0.00 in/hr0.0 mm/hr 0.00 in0.0 mm
07:50 AM 63.2°F17.3°C 59.6°F15.3°C 88% Calm Calm -- 30.04 in1017.3 mb 0.00 in0.0 mm 0.00 in/hr0.0 mm/hr 0.00 in0.0 mm
07:55 AM 63.3°F17.4°C 59.7°F15.4°C 88% Calm Calm -- 30.04 in1017.3 mb 0.00 in0.0 mm 0.00 in/hr0.0 mm/hr 0.00 in0.0 mm
08:00 AM 63.6°F17.6°C 60.0°F15.6°C 88% Calm Calm -- 30.04 in1017.3 mb 0.00 in0.0 mm 0.00 in/hr0.0 mm/hr 0.00 in0.0 mm
08:05 AM 63.8°F17.7°C 60.5°F15.8°C 89% Calm Calm -- 30.05 in1017.6 mb 0.00 in0.0 mm 0.00 in/hr0.0 mm/hr 0.00 in0.0 mm
08:10 AM 64.2°F17.9°C 60.6°F15.9°C 88% Calm Calm -- 30.05 in1017.6 mb 0.00 in0.0 mm 0.00 in/hr0.0 mm/hr 0.00 in0.0 mm
08:15 AM 64.5°F18.1°C 61.2°F16.2°C 89% Calm Calm -- 30.05 in1017.6 mb 0.00 in0.0 mm 0.00 in/hr0.0 mm/hr 0.00 in0.0 mm
08:20 AM 64.9°F18.3°C 61.3°F16.3°C 88% Calm Calm -- 30.05 in1017.6 mb 0.00 in0.0 mm 0.00 in/hr0.0 mm/hr 0.00 in0.0 mm
08:25 AM 65.3°F18.5°C 61.7°F16.5°C 88% Calm Calm -- 30.05 in1017.6 mb 0.00 in0.0 mm 0.00 in/hr0.0 mm/hr 0.00 in0.0 mm
08:30 AM 65.8°F18.8°C 62.2°F16.8°C 88% Calm Calm -- 30.06 in1017.9 mb 0.00 in0.0 mm 0.00 in/hr0.0 mm/hr 0.00 in0.0 mm
08:35 AM 66.5°F19.2°C 62.8°F17.1°C 88% Calm Calm -- 30.06 in1017.9 mb 0.00 in0.0 mm 0.00 in/hr0.0 mm/hr 0.00 in0.0 mm
08:40 AM 67.2°F19.6°C 62.9°F17.2°C 86% Calm Calm -- 30.06 in1017.9 mb 0.00 in0.0 mm 0.00 in/hr0.0 mm/hr 0.00 in0.0 mm
08:45 AM 67.8°F19.9°C 63.1°F17.3°C 85% Calm Calm -- 30.06 in1017.9 mb 0.00 in0.0 mm 0.00 in/hr0.0 mm/hr 0.00 in0.0 mm
08:50 AM 68.3°F20.2°C 63.3°F17.4°C 84% Calm Calm -- 30.06 in1017.9 mb 0.00 in0.0 mm 0.00 in/hr0.0 mm/hr 0.00 in0.0 mm
08:55 AM 68.7°F20.4°C 63.0°F17.2°C 82% Calm Calm -- 30.06 in1017.9 mb 0.00 in0.0 mm 0.00 in/hr0.0 mm/hr 0.00 in0.0 mm
09:00 AM 69.2°F20.7°C 63.1°F17.3°C 81% Calm Calm -- 30.06 in1017.9 mb 0.00 in0.0 mm 0.00 in/hr0.0 mm/hr 0.00 in0.0 mm
09:05 AM 69.4°F20.8°C 63.0°F17.2°C 80% Calm Calm -- 30.06 in1017.9 mb 0.00 in0.0 mm 0.00 in/hr0.0 mm/hr 0.00 in0.0 mm
09:10 AM 69.8°F21.0°C 63.0°F17.2°C 79% Calm Calm -- 30.06 in1017.9 mb 0.00 in0.0 mm 0.00 in/hr0.0 mm/hr 0.00 in0.0 mm
09:15 AM 70.1°F21.2°C 62.9°F17.2°C 78% Calm Calm -- 30.07 in1018.3 mb 0.00 in0.0 mm 0.00 in/hr0.0 mm/hr 0.00 in0.0 mm
09:20 AM 70.6°F21.4°C 62.7°F17.1°C 76% Calm Calm -- 30.07 in1018.3 mb 0.00 in0.0 mm 0.00 in/hr0.0 mm/hr 0.00 in0.0 mm
09:25 AM 70.9°F21.6°C 63.0°F17.2°C 76% 1.0 mph S1.6 kmh S 1.0 mph1.6 kmh 30.07 in1018.3 mb 0.00 in0.0 mm 0.00 in/hr0.0 mm/hr 0.00 in0.0 mm
09:30 AM 71.4°F21.9°C 63.1°F17.3°C 75% Calm Calm -- 30.07 in1018.3 mb 0.00 in0.0 mm 0.00 in/hr0.0 mm/hr 0.00 in0.0 mm
09:35 AM 72.0°F22.2°C 63.3°F17.4°C 74% Calm Calm -- 30.07 in1018.3 mb 0.00 in0.0 mm 0.00 in/hr0.0 mm/hr 0.00 in0.0 mm
09:40 AM 72.5°F22.5°C 63.4°F17.4°C 73% 5.0 mph S8.0 kmh S 5.0 mph8.0 kmh 30.07 in1018.3 mb 0.00 in0.0 mm 0.00 in/hr0.0 mm/hr 0.00 in0.0 mm
09:45 AM 72.6°F22.6°C 63.1°F17.3°C 72% 5.0 mph S8.0 kmh S 6.0 mph9.7 kmh 30.07 in1018.3 mb 0.00 in0.0 mm 0.00 in/hr0.0 mm/hr 0.00 in0.0 mm
09:50 AM 72.7°F22.6°C 63.2°F17.3°C 72% 4.0 mph S6.4 kmh S 5.0 mph8.0 kmh 30.07 in1018.3 mb 0.00 in0.0 mm 0.00 in/hr0.0 mm/hr 0.00 in0.0 mm
09:55 AM 73.2°F22.9°C 63.2°F17.3°C 71% 6.0 mph S9.7 kmh S 6.0 mph9.7 kmh 30.07 in1018.3 mb 0.00 in0.0 mm 0.00 in/hr0.0 mm/hr 0.00 in0.0 mm
10:00 AM 73.7°F23.2°C 62.9°F17.2°C 69% 2.0 mph S3.2 kmh S 7.0 mph11.3 kmh 30.07 in1018.3 mb 0.00 in0.0 mm 0.00 in/hr0.0 mm/hr 0.00 in0.0 mm
10:05 AM 74.4°F23.6°C 63.6°F17.6°C 69% 2.0 mph S3.2 kmh S 4.0 mph6.4 kmh 30.07 in1018.3 mb 0.00 in0.0 mm 0.00 in/hr0.0 mm/hr 0.00 in0.0 mm
10:10 AM 74.9°F23.8°C 63.6°F17.6°C 68% 6.0 mph S9.7 kmh S 6.0 mph9.7 kmh 30.07 in1018.3 mb 0.00 in0.0 mm 0.00 in/hr0.0 mm/hr 0.00 in0.0 mm
10:15 AM 75.3°F24.1°C 64.0°F17.8°C 68% 1.0 mph S1.6 kmh S 2.0 mph3.2 kmh 30.07 in1018.3 mb 0.00 in0.0 mm 0.00 in/hr0.0 mm/hr 0.00 in0.0 mm
10:20 AM 75.6°F24.2°C 63.5°F17.5°C 66% 1.0 mph S1.6 kmh S 1.0 mph1.6 kmh 30.07 in1018.3 mb 0.00 in0.0 mm 0.00 in/hr0.0 mm/hr 0.00 in0.0 mm
10:25 AM 75.3°F24.1°C 63.2°F17.3°C 66% Calm Calm -- 30.07 in1018.3 mb 0.00 in0.0 mm 0.00 in/hr0.0 mm/hr 0.00 in0.0 mm
10:30 AM 75.3°F24.1°C 63.2°F17.3°C 66% 1.0 mph S1.6 kmh S 2.0 mph3.2 kmh 30.07 in1018.3 mb 0.00 in0.0 mm 0.00 in/hr0.0 mm/hr 0.00 in0.0 mm
10:35 AM 75.4°F24.1°C 64.1°F17.8°C 68% Calm Calm 2.0 mph3.2 kmh 30.08 in1018.6 mb 0.00 in0.0 mm 0.00 in/hr0.0 mm/hr 0.00 in0.0 mm
10:40 AM 75.6°F24.2°C 63.9°F17.7°C 67% Calm Calm 1.0 mph1.6 kmh 30.08 in1018.6 mb 0.00 in0.0 mm 0.00 in/hr0.0 mm/hr 0.00 in0.0 mm
10:45 AM 75.6°F24.2°C 64.3°F17.9°C 68% Calm Calm -- 30.08 in1018.6 mb 0.00 in0.0 mm 0.00 in/hr0.0 mm/hr 0.00 in0.0 mm
10:50 AM 75.9°F24.4°C 64.2°F17.9°C 67% 1.0 mph S1.6 kmh S 1.0 mph1.6 kmh 30.08 in1018.6 mb 0.00 in0.0 mm 0.00 in/hr0.0 mm/hr 0.00 in0.0 mm
10:55 AM 76.9°F24.9°C 64.3°F17.9°C 65% Calm Calm 2.0 mph3.2 kmh 30.08 in1018.6 mb 0.00 in0.0 mm 0.00 in/hr0.0 mm/hr 0.00 in0.0 mm
11:00 AM 77.9°F25.5°C 63.8°F17.7°C 62% Calm Calm -- 30.08 in1018.6 mb 0.00 in0.0 mm 0.00 in/hr0.0 mm/hr 0.00 in0.0 mm
11:05 AM 78.4°F25.8°C 63.9°F17.7°C 61% Calm Calm -- 30.08 in1018.6 mb 0.00 in0.0 mm 0.00 in/hr0.0 mm/hr 0.00 in0.0 mm
11:10 AM 78.6°F25.9°C 65.0°F18.3°C 63% 2.0 mph S3.2 kmh S 4.0 mph6.4 kmh 30.08 in1018.6 mb 0.00 in0.0 mm 0.00 in/hr0.0 mm/hr 0.00 in0.0 mm
11:15 AM 78.7°F25.9°C 65.1°F18.4°C 63% 1.0 mph S1.6 kmh S 1.0 mph1.6 kmh 30.08 in1018.6 mb 0.00 in0.0 mm 0.00 in/hr0.0 mm/hr 0.00 in0.0 mm
11:20 AM 78.5°F25.8°C 64.0°F17.8°C 61% Calm Calm -- 30.08 in1018.6 mb 0.00 in0.0 mm 0.00 in/hr0.0 mm/hr 0.00 in0.0 mm
11:25 AM 78.7°F25.9°C 64.6°F18.1°C 62% 2.0 mph S3.2 kmh S 5.0 mph8.0 kmh 30.08 in1018.6 mb 0.00 in0.0 mm 0.00 in/hr0.0 mm/hr 0.00 in0.0 mm
11:30 AM 79.3°F26.3°C 64.7°F18.2°C 61% 5.0 mph S8.0 kmh S 5.0 mph8.0 kmh 30.08 in1018.6 mb 0.00 in0.0 mm 0.00 in/hr0.0 mm/hr 0.00 in0.0 mm
11:35 AM 79.6°F26.4°C 65.9°F18.8°C 63% Calm Calm -- 30.08 in1018.6 mb 0.00 in0.0 mm 0.00 in/hr0.0 mm/hr 0.00 in0.0 mm
11:40 AM 79.0°F26.1°C 64.4°F18.0°C 61% 1.0 mph S1.6 kmh S 2.0 mph3.2 kmh 30.08 in1018.6 mb 0.00 in0.0 mm 0.00 in/hr0.0 mm/hr 0.00 in0.0 mm
11:45 AM 79.5°F26.4°C 63.9°F17.7°C 59% 1.0 mph S1.6 kmh S 2.0 mph3.2 kmh 30.08 in1018.6 mb 0.00 in0.0 mm 0.00 in/hr0.0 mm/hr 0.00 in0.0 mm
11:50 AM 80.2°F26.8°C 64.1°F17.8°C 58% 4.0 mph S6.4 kmh S 5.0 mph8.0 kmh 30.08 in1018.6 mb 0.00 in0.0 mm 0.00 in/hr0.0 mm/hr 0.00 in0.0 mm
11:55 AM 79.4°F26.3°C 64.3°F17.9°C 60% 1.0 mph S1.6 kmh S 2.0 mph3.2 kmh 30.07 in1018.3 mb 0.00 in0.0 mm 0.00 in/hr0.0 mm/hr 0.00 in0.0 mm
12:00 PM 80.1°F26.7°C 64.5°F18.1°C 59% 4.0 mph S6.4 kmh S 5.0 mph8.0 kmh 30.07 in1018.3 mb 0.00 in0.0 mm 0.00 in/hr0.0 mm/hr 0.00 in0.0 mm
12:05 PM 80.1°F26.7°C 63.0°F17.2°C 56% 1.0 mph S1.6 kmh S 1.0 mph1.6 kmh 30.08 in1018.6 mb 0.00 in0.0 mm 0.00 in/hr0.0 mm/hr 0.00 in0.0 mm
12:10 PM 79.9°F26.6°C 63.3°F17.4°C 57% 2.0 mph S3.2 kmh S 5.0 mph8.0 kmh 30.07 in1018.3 mb 0.00 in0.0 mm 0.00 in/hr0.0 mm/hr 0.00 in0.0 mm
12:15 PM 80.3°F26.8°C 63.7°F17.6°C 57% 1.0 mph S1.6 kmh S 5.0 mph8.0 kmh 30.07 in1018.3 mb 0.00 in0.0 mm 0.00 in/hr0.0 mm/hr 0.00 in0.0 mm
12:20 PM 80.8°F27.1°C 64.2°F17.9°C 57% 7.0 mph S11.3 kmh S 7.0 mph11.3 kmh 30.07 in1018.3 mb 0.00 in0.0 mm 0.00 in/hr0.0 mm/hr 0.00 in0.0 mm
12:25 PM 79.9°F26.6°C 63.3°F17.4°C 57% 5.0 mph S8.0 kmh S 7.0 mph11.3 kmh 30.07 in1018.3 mb 0.00 in0.0 mm 0.00 in/hr0.0 mm/hr 0.00 in0.0 mm
12:30 PM 79.8°F26.6°C 62.2°F16.8°C 55% Calm Calm -- 30.07 in1018.3 mb 0.00 in0.0 mm 0.00 in/hr0.0 mm/hr 0.00 in0.0 mm
12:35 PM 80.0°F26.7°C 63.4°F17.4°C 57% 4.0 mph S6.4 kmh S 4.0 mph6.4 kmh 30.07 in1018.3 mb 0.00 in0.0 mm 0.00 in/hr0.0 mm/hr 0.00 in0.0 mm
12:40 PM 81.0°F27.2°C 64.9°F18.3°C 58% 5.0 mph S8.0 kmh S 8.0 mph12.9 kmh 30.07 in1018.3 mb 0.00 in0.0 mm 0.00 in/hr0.0 mm/hr 0.00 in0.0 mm
12:45 PM 81.8°F27.7°C 63.0°F17.2°C 53% 5.0 mph S8.0 kmh S 5.0 mph8.0 kmh 30.07 in1018.3 mb 0.00 in0.0 mm 0.00 in/hr0.0 mm/hr 0.00 in0.0 mm
12:50 PM 81.3°F27.4°C 63.1°F17.3°C 54% 4.0 mph S6.4 kmh S 4.0 mph6.4 kmh 30.06 in1017.9 mb 0.00 in0.0 mm 0.00 in/hr0.0 mm/hr 0.00 in0.0 mm
12:55 PM 82.2°F27.9°C 63.9°F17.7°C 54% 1.0 mph S1.6 kmh S 1.0 mph1.6 kmh 30.06 in1017.9 mb 0.00 in0.0 mm 0.00 in/hr0.0 mm/hr 0.00 in0.0 mm
01:00 PM 82.1°F27.8°C 63.8°F17.7°C 54% 4.0 mph S6.4 kmh S 4.0 mph6.4 kmh 30.06 in1017.9 mb 0.00 in0.0 mm 0.00 in/hr0.0 mm/hr 0.00 in0.0 mm
01:05 PM 81.5°F27.5°C 63.3°F17.4°C 54% 2.0 mph SSE3.2 kmh SSE 6.0 mph9.7 kmh 30.06 in1017.9 mb 0.00 in0.0 mm 0.00 in/hr0.0 mm/hr 0.00 in0.0 mm
01:10 PM 81.0°F27.2°C 62.8°F17.1°C 54% 4.0 mph SSE6.4 kmh SSE 4.0 mph6.4 kmh 30.05 in1017.6 mb 0.00 in0.0 mm 0.00 in/hr0.0 mm/hr 0.00 in0.0 mm
01:15 PM 80.7°F27.1°C 63.1°F17.3°C 55% 2.0 mph SSE3.2 kmh SSE 2.0 mph3.2 kmh 30.05 in1017.6 mb 0.00 in0.0 mm 0.00 in/hr0.0 mm/hr 0.00 in0.0 mm
01:20 PM 81.8°F27.7°C 64.1°F17.8°C 55% 6.0 mph SSE9.7 kmh SSE 8.0 mph12.9 kmh 30.06 in1017.9 mb 0.00 in0.0 mm 0.00 in/hr0.0 mm/hr 0.00 in0.0 mm
01:25 PM 82.5°F28.1°C 64.2°F17.9°C 54% 2.0 mph SSE3.2 kmh SSE 5.0 mph8.0 kmh 30.05 in1017.6 mb 0.00 in0.0 mm 0.00 in/hr0.0 mm/hr 0.00 in0.0 mm
01:30 PM 82.0°F27.8°C 64.3°F17.9°C 55% 2.0 mph SSE3.2 kmh SSE 2.0 mph3.2 kmh 30.05 in1017.6 mb 0.00 in0.0 mm 0.00 in/hr0.0 mm/hr 0.00 in0.0 mm
01:35 PM 81.6°F27.6°C 63.9°F17.7°C 55% 4.0 mph SSE6.4 kmh SSE 6.0 mph9.7 kmh 30.05 in1017.6 mb 0.00 in0.0 mm 0.00 in/hr0.0 mm/hr 0.00 in0.0 mm
01:40 PM 81.4°F27.4°C 63.2°F17.3°C 54% 4.0 mph SSE6.4 kmh SSE 5.0 mph8.0 kmh 30.05 in1017.6 mb 0.00 in0.0 mm 0.00 in/hr0.0 mm/hr 0.00 in0.0 mm
01:45 PM 81.0°F27.2°C 63.3°F17.4°C 55% 2.0 mph SSE3.2 kmh SSE 10.0 mph16.1 kmh 30.04 in1017.3 mb 0.00 in0.0 mm 0.00 in/hr0.0 mm/hr 0.00 in0.0 mm
01:50 PM 81.7°F27.6°C 61.3°F16.3°C 50% 7.0 mph SSE11.3 kmh SSE 8.0 mph12.9 kmh 30.05 in1017.6 mb 0.00 in0.0 mm 0.00 in/hr0.0 mm/hr 0.00 in0.0 mm
01:55 PM 83.1°F28.4°C 61.4°F16.3°C 48% 5.0 mph SSE8.0 kmh SSE 6.0 mph9.7 kmh 30.04 in1017.3 mb 0.00 in0.0 mm 0.00 in/hr0.0 mm/hr 0.00 in0.0 mm
02:00 PM 83.9°F28.8°C 59.0°F15.0°C 43% 5.0 mph SSE8.0 kmh SSE 14.0 mph22.5 kmh 30.03 in1016.9 mb 0.00 in0.0 mm 0.00 in/hr0.0 mm/hr 0.00 in0.0 mm
02:05 PM 85.0°F29.4°C 58.7°F14.8°C 41% 9.0 mph SSE14.5 kmh SSE 11.0 mph17.7 kmh 30.03 in1016.9 mb 0.00 in0.0 mm 0.00 in/hr0.0 mm/hr 0.00 in0.0 mm
02:10 PM 85.9°F29.9°C 60.2°F15.7°C 42% 9.0 mph SSE14.5 kmh SSE 10.0 mph16.1 kmh 30.03 in1016.9 mb 0.00 in0.0 mm 0.00 in/hr0.0 mm/hr 0.00 in0.0 mm
02:15 PM 85.9°F29.9°C 60.8°F16.0°C 43% 8.0 mph SSE12.9 kmh SSE 10.0 mph16.1 kmh 30.03 in1016.9 mb 0.00 in0.0 mm 0.00 in/hr0.0 mm/hr 0.00 in0.0 mm
02:20 PM 85.1°F29.5°C 60.8°F16.0°C 44% 6.0 mph SSE9.7 kmh SSE 9.0 mph14.5 kmh 30.03 in1016.9 mb 0.00 in0.0 mm 0.00 in/hr0.0 mm/hr 0.00 in0.0 mm
02:25 PM 86.2°F30.1°C 60.4°F15.8°C 42% 2.0 mph SSE3.2 kmh SSE 6.0 mph9.7 kmh 30.03 in1016.9 mb 0.00 in0.0 mm 0.00 in/hr0.0 mm/hr 0.00 in0.0 mm
02:30 PM 86.2°F30.1°C 60.4°F15.8°C 42% 1.0 mph SSE1.6 kmh SSE 4.0 mph6.4 kmh 30.02 in1016.6 mb 0.00 in0.0 mm 0.00 in/hr0.0 mm/hr 0.00 in0.0 mm
02:35 PM 85.2°F29.6°C 61.5°F16.4°C 45% 4.0 mph SSE6.4 kmh SSE 5.0 mph8.0 kmh 30.02 in1016.6 mb 0.00 in0.0 mm 0.00 in/hr0.0 mm/hr 0.00 in0.0 mm
02:40 PM 83.9°F28.8°C 60.3°F15.7°C 45% 2.0 mph SSE3.2 kmh SSE 4.0 mph6.4 kmh 30.02 in1016.6 mb 0.00 in0.0 mm 0.00 in/hr0.0 mm/hr 0.00 in0.0 mm
02:45 PM 83.7°F28.7°C 60.7°F15.9°C 46% 2.0 mph SSE3.2 kmh SSE 8.0 mph12.9 kmh 30.02 in1016.6 mb 0.00 in0.0 mm 0.00 in/hr0.0 mm/hr 0.00 in0.0 mm
02:50 PM 83.7°F28.7°C 61.4°F16.3°C 47% 11.0 mph SSE17.7 kmh SSE 12.0 mph19.3 kmh 30.01 in1016.3 mb 0.00 in0.0 mm 0.00 in/hr0.0 mm/hr 0.00 in0.0 mm
02:55 PM 83.1°F28.4°C 60.8°F16.0°C 47% 2.0 mph SSE3.2 kmh SSE 6.0 mph9.7 kmh 30.01 in1016.3 mb 0.00 in0.0 mm 0.00 in/hr0.0 mm/hr 0.00 in0.0 mm
03:00 PM 82.9°F28.3°C 61.8°F16.6°C 49% 5.0 mph SSE8.0 kmh SSE 6.0 mph9.7 kmh 30.01 in1016.3 mb 0.00 in0.0 mm 0.00 in/hr0.0 mm/hr 0.00 in0.0 mm
03:05 PM 83.3°F28.5°C 59.8°F15.4°C 45% 7.0 mph SSE11.3 kmh SSE 11.0 mph17.7 kmh 30.01 in1016.3 mb 0.00 in0.0 mm 0.00 in/hr0.0 mm/hr 0.00 in0.0 mm
03:10 PM 84.0°F28.9°C 59.8°F15.4°C 44% 4.0 mph SSE6.4 kmh SSE 10.0 mph16.1 kmh 30.00 in1015.9 mb 0.00 in0.0 mm 0.00 in/hr0.0 mm/hr 0.00 in0.0 mm
03:15 PM 83.9°F28.8°C 59.7°F15.4°C 44% 9.0 mph SSE14.5 kmh SSE 9.0 mph14.5 kmh 30.00 in1015.9 mb 0.00 in0.0 mm 0.00 in/hr0.0 mm/hr 0.00 in0.0 mm
03:20 PM 84.6°F29.2°C 59.7°F15.4°C 43% 4.0 mph S6.4 kmh S 6.0 mph9.7 kmh 30.00 in1015.9 mb 0.00 in0.0 mm 0.00 in/hr0.0 mm/hr 0.00 in0.0 mm
03:25 PM 84.8°F29.3°C 57.1°F13.9°C 39% 4.0 mph SSE6.4 kmh SSE 8.0 mph12.9 kmh 30.00 in1015.9 mb 0.00 in0.0 mm 0.00 in/hr0.0 mm/hr 0.00 in0.0 mm
03:30 PM 85.3°F29.6°C 58.3°F14.6°C 40% 9.0 mph S14.5 kmh S 10.0 mph16.1 kmh 30.00 in1015.9 mb 0.00 in0.0 mm 0.00 in/hr0.0 mm/hr 0.00 in0.0 mm
03:35 PM 85.7°F29.8°C 59.3°F15.2°C 41% 8.0 mph S12.9 kmh S 8.0 mph12.9 kmh 30.00 in1015.9 mb 0.00 in0.0 mm 0.00 in/hr0.0 mm/hr 0.00 in0.0 mm
03:40 PM 84.6°F29.2°C 60.3°F15.7°C 44% 4.0 mph S6.4 kmh S 6.0 mph9.7 kmh 29.99 in1015.6 mb 0.00 in0.0 mm 0.00 in/hr0.0 mm/hr 0.00 in0.0 mm
03:45 PM 84.1°F28.9°C 60.5°F15.8°C 45% 5.0 mph SSE8.0 kmh SSE 8.0 mph12.9 kmh 29.99 in1015.6 mb 0.00 in0.0 mm 0.00 in/hr0.0 mm/hr 0.00 in0.0 mm
03:50 PM 84.3°F29.1°C 60.0°F15.6°C 44% 1.0 mph SSE1.6 kmh SSE 5.0 mph8.0 kmh 29.99 in1015.6 mb 0.00 in0.0 mm 0.00 in/hr0.0 mm/hr 0.00 in0.0 mm
03:55 PM 84.4°F29.1°C 60.8°F16.0°C 45% 6.0 mph SSE9.7 kmh SSE 7.0 mph11.3 kmh 29.99 in1015.6 mb 0.00 in0.0 mm 0.00 in/hr0.0 mm/hr 0.00 in0.0 mm
04:00 PM 84.2°F29.0°C 61.2°F16.2°C 46% 2.0 mph SSE3.2 kmh SSE 6.0 mph9.7 kmh 29.99 in1015.6 mb 0.00 in0.0 mm 0.00 in/hr0.0 mm/hr 0.00 in0.0 mm
04:05 PM 84.8°F29.3°C 59.2°F15.1°C 42% 6.0 mph S9.7 kmh S 10.0 mph16.1 kmh 29.99 in1015.6 mb 0.00 in0.0 mm 0.00 in/hr0.0 mm/hr 0.00 in0.0 mm
04:10 PM 84.9°F29.4°C 59.9°F15.5°C 43% 5.0 mph SSE8.0 kmh SSE 10.0 mph16.1 kmh 29.98 in1015.2 mb 0.00 in0.0 mm 0.00 in/hr0.0 mm/hr 0.00 in0.0 mm
04:15 PM 84.3°F29.1°C 59.4°F15.2°C 43% 1.0 mph SSE1.6 kmh SSE 5.0 mph8.0 kmh 29.98 in1015.2 mb 0.00 in0.0 mm 0.00 in/hr0.0 mm/hr 0.00 in0.0 mm
04:20 PM 84.0°F28.9°C 59.1°F15.1°C 43% 8.0 mph SSE12.9 kmh SSE 16.0 mph25.7 kmh 29.98 in1015.2 mb 0.00 in0.0 mm 0.00 in/hr0.0 mm/hr 0.00 in0.0 mm
04:25 PM 83.6°F28.7°C 58.1°F14.5°C 42% 2.0 mph SSE3.2 kmh SSE 7.0 mph11.3 kmh 29.98 in1015.2 mb 0.00 in0.0 mm 0.00 in/hr0.0 mm/hr 0.00 in0.0 mm
04:30 PM 83.3°F28.5°C 57.8°F14.3°C 42% 8.0 mph SSE12.9 kmh SSE 8.0 mph12.9 kmh 29.98 in1015.2 mb 0.00 in0.0 mm 0.00 in/hr0.0 mm/hr 0.00 in0.0 mm
04:35 PM 83.2°F28.4°C 59.0°F15.0°C 44% 7.0 mph SSE11.3 kmh SSE 9.0 mph14.5 kmh 29.97 in1014.9 mb 0.00 in0.0 mm 0.00 in/hr0.0 mm/hr 0.00 in0.0 mm
04:40 PM 83.2°F28.4°C 59.0°F15.0°C 44% 7.0 mph SSE11.3 kmh SSE 12.0 mph19.3 kmh 29.97 in1014.9 mb 0.00 in0.0 mm 0.00 in/hr0.0 mm/hr 0.00 in0.0 mm
04:45 PM 83.1°F28.4°C 61.4°F16.3°C 48% 4.0 mph SSE6.4 kmh SSE 9.0 mph14.5 kmh 29.97 in1014.9 mb 0.00 in0.0 mm 0.00 in/hr0.0 mm/hr 0.00 in0.0 mm
04:50 PM 83.0°F28.3°C 60.7°F15.9°C 47% 5.0 mph SSE8.0 kmh SSE 12.0 mph19.3 kmh 29.97 in1014.9 mb 0.00 in0.0 mm 0.00 in/hr0.0 mm/hr 0.00 in0.0 mm
04:55 PM 82.9°F28.3°C 61.2°F16.2°C 48% 4.0 mph SSE6.4 kmh SSE 10.0 mph16.1 kmh 29.97 in1014.9 mb 0.00 in0.0 mm 0.00 in/hr0.0 mm/hr 0.00 in0.0 mm
05:00 PM 82.9°F28.3°C 62.4°F16.9°C 50% 8.0 mph SSE12.9 kmh SSE 8.0 mph12.9 kmh 29.97 in1014.9 mb 0.00 in0.0 mm 0.00 in/hr0.0 mm/hr 0.00 in0.0 mm
05:05 PM 82.8°F28.2°C 61.1°F16.2°C 48% 10.0 mph SE16.1 kmh SE 12.0 mph19.3 kmh 29.97 in1014.9 mb 0.00 in0.0 mm 0.00 in/hr0.0 mm/hr 0.00 in0.0 mm
05:10 PM 82.4°F28.0°C 60.2°F15.7°C 47% 7.0 mph SE11.3 kmh SE 12.0 mph19.3 kmh 29.96 in1014.6 mb 0.00 in0.0 mm 0.00 in/hr0.0 mm/hr 0.00 in0.0 mm
05:15 PM 82.6°F28.1°C 60.4°F15.8°C 47% 5.0 mph SSE8.0 kmh SSE 12.0 mph19.3 kmh 29.96 in1014.6 mb 0.00 in0.0 mm 0.00 in/hr0.0 mm/hr 0.00 in0.0 mm
05:20 PM 83.0°F28.3°C 60.7°F15.9°C 47% 4.0 mph S6.4 kmh S 9.0 mph14.5 kmh 29.96 in1014.6 mb 0.00 in0.0 mm 0.00 in/hr0.0 mm/hr 0.00 in0.0 mm
05:25 PM 83.3°F28.5°C 61.0°F16.1°C 47% 4.0 mph S6.4 kmh S 9.0 mph14.5 kmh 29.96 in1014.6 mb 0.00 in0.0 mm 0.00 in/hr0.0 mm/hr 0.00 in0.0 mm
05:30 PM 83.4°F28.6°C 61.1°F16.2°C 47% 4.0 mph SSE6.4 kmh SSE 11.0 mph17.7 kmh 29.96 in1014.6 mb 0.00 in0.0 mm 0.00 in/hr0.0 mm/hr 0.00 in0.0 mm
05:35 PM 83.0°F28.3°C 60.7°F15.9°C 47% 6.0 mph SSE9.7 kmh SSE 10.0 mph16.1 kmh 29.96 in1014.6 mb 0.00 in0.0 mm 0.00 in/hr0.0 mm/hr 0.00 in0.0 mm
05:40 PM 82.5°F28.1°C 61.4°F16.3°C 49% 12.0 mph SE19.3 kmh SE 12.0 mph19.3 kmh 29.96 in1014.6 mb 0.00 in0.0 mm 0.00 in/hr0.0 mm/hr 0.00 in0.0 mm
05:45 PM 82.4°F28.0°C 60.2°F15.7°C 47% 6.0 mph SE9.7 kmh SE 8.0 mph12.9 kmh 29.96 in1014.6 mb 0.00 in0.0 mm 0.00 in/hr0.0 mm/hr 0.00 in0.0 mm
05:50 PM 82.1°F27.8°C 59.3°F15.2°C 46% 7.0 mph SE11.3 kmh SE 11.0 mph17.7 kmh 29.96 in1014.6 mb 0.00 in0.0 mm 0.00 in/hr0.0 mm/hr 0.00 in0.0 mm
05:55 PM 82.2°F27.9°C 60.0°F15.6°C 47% 6.0 mph SE9.7 kmh SE 10.0 mph16.1 kmh 29.95 in1014.2 mb 0.00 in0.0 mm 0.00 in/hr0.0 mm/hr 0.00 in0.0 mm
06:00 PM 82.1°F27.8°C 60.5°F15.8°C 48% 6.0 mph SE9.7 kmh SE 9.0 mph14.5 kmh 29.95 in1014.2 mb 0.00 in0.0 mm 0.00 in/hr0.0 mm/hr 0.00 in0.0 mm
06:05 PM 81.6°F27.6°C 60.0°F15.6°C 48% 12.0 mph SE19.3 kmh SE 12.0 mph19.3 kmh 29.95 in1014.2 mb 0.00 in0.0 mm 0.00 in/hr0.0 mm/hr 0.00 in0.0 mm
06:10 PM 81.5°F27.5°C 59.9°F15.5°C 48% 7.0 mph SE11.3 kmh SE 13.0 mph20.9 kmh 29.95 in1014.2 mb 0.00 in0.0 mm 0.00 in/hr0.0 mm/hr 0.00 in0.0 mm
06:15 PM 81.5°F27.5°C 60.5°F15.8°C 49% 6.0 mph SE9.7 kmh SE 8.0 mph12.9 kmh 29.95 in1014.2 mb 0.00 in0.0 mm 0.00 in/hr0.0 mm/hr 0.00 in0.0 mm
06:20 PM 81.5°F27.5°C 60.5°F15.8°C 49% 5.0 mph SE8.0 kmh SE 10.0 mph16.1 kmh 29.95 in1014.2 mb 0.00 in0.0 mm 0.00 in/hr0.0 mm/hr 0.00 in0.0 mm
06:25 PM 81.4°F27.4°C 61.0°F16.1°C 50% 7.0 mph SE11.3 kmh SE 7.0 mph11.3 kmh 29.95 in1014.2 mb 0.00 in0.0 mm 0.00 in/hr0.0 mm/hr 0.00 in0.0 mm
06:30 PM 81.4°F27.4°C 61.0°F16.1°C 50% 4.0 mph SE6.4 kmh SE 10.0 mph16.1 kmh 29.95 in1014.2 mb 0.00 in0.0 mm 0.00 in/hr0.0 mm/hr 0.00 in0.0 mm
06:35 PM 81.3°F27.4°C 60.9°F16.1°C 50% 11.0 mph SE17.7 kmh SE 11.0 mph17.7 kmh 29.94 in1013.9 mb 0.00 in0.0 mm 0.00 in/hr0.0 mm/hr 0.00 in0.0 mm
06:40 PM 81.1°F27.3°C 61.3°F16.3°C 51% 8.0 mph SE12.9 kmh SE 8.0 mph12.9 kmh 29.95 in1014.2 mb 0.00 in0.0 mm 0.00 in/hr0.0 mm/hr 0.00 in0.0 mm
06:45 PM 81.0°F27.2°C 61.7°F16.5°C 52% 5.0 mph SE8.0 kmh SE 10.0 mph16.1 kmh 29.94 in1013.9 mb 0.00 in0.0 mm 0.00 in/hr0.0 mm/hr 0.00 in0.0 mm
06:50 PM 80.6°F27.0°C 61.4°F16.3°C 52% 11.0 mph SE17.7 kmh SE 11.0 mph17.7 kmh 29.94 in1013.9 mb 0.00 in0.0 mm 0.00 in/hr0.0 mm/hr 0.00 in0.0 mm
06:55 PM 80.4°F26.9°C 61.2°F16.2°C 52% 2.0 mph SE3.2 kmh SE 6.0 mph9.7 kmh 29.94 in1013.9 mb 0.00 in0.0 mm 0.00 in/hr0.0 mm/hr 0.00 in0.0 mm
07:00 PM 80.2°F26.8°C 61.0°F16.1°C 52% 8.0 mph SE12.9 kmh SE 8.0 mph12.9 kmh 29.94 in1013.9 mb 0.00 in0.0 mm 0.00 in/hr0.0 mm/hr 0.00 in0.0 mm
07:05 PM 79.9°F26.6°C 60.7°F15.9°C 52% 5.0 mph SE8.0 kmh SE 10.0 mph16.1 kmh 29.95 in1014.2 mb 0.00 in0.0 mm 0.00 in/hr0.0 mm/hr 0.00 in0.0 mm
07:10 PM 79.7°F26.5°C 60.5°F15.8°C 52% 7.0 mph SE11.3 kmh SE 10.0 mph16.1 kmh 29.95 in1014.2 mb 0.00 in0.0 mm 0.00 in/hr0.0 mm/hr 0.00 in0.0 mm
07:15 PM 79.6°F26.4°C 60.4°F15.8°C 52% 2.0 mph SE3.2 kmh SE 5.0 mph8.0 kmh 29.95 in1014.2 mb 0.00 in0.0 mm 0.00 in/hr0.0 mm/hr 0.00 in0.0 mm
07:20 PM 79.5°F26.4°C 60.4°F15.8°C 52% 6.0 mph SE9.7 kmh SE 6.0 mph9.7 kmh 29.95 in1014.2 mb 0.00 in0.0 mm 0.00 in/hr0.0 mm/hr 0.00 in0.0 mm
07:25 PM 79.3°F26.3°C 59.6°F15.3°C 51% 4.0 mph SE6.4 kmh SE 5.0 mph8.0 kmh 29.95 in1014.2 mb 0.00 in0.0 mm 0.00 in/hr0.0 mm/hr 0.00 in0.0 mm
07:30 PM 79.2°F26.2°C 60.1°F15.6°C 52% 2.0 mph SE3.2 kmh SE 9.0 mph14.5 kmh 29.96 in1014.6 mb 0.00 in0.0 mm 0.00 in/hr0.0 mm/hr 0.00 in0.0 mm
07:35 PM 79.0°F26.1°C 60.4°F15.8°C 53% 5.0 mph SE8.0 kmh SE 8.0 mph12.9 kmh 29.96 in1014.6 mb 0.00 in0.0 mm 0.00 in/hr0.0 mm/hr 0.00 in0.0 mm
07:40 PM 78.7°F25.9°C 60.2°F15.7°C 53% 5.0 mph SE8.0 kmh SE 11.0 mph17.7 kmh 29.97 in1014.9 mb 0.00 in0.0 mm 0.00 in/hr0.0 mm/hr 0.00 in0.0 mm
07:45 PM 78.0°F25.6°C 63.9°F17.7°C 62% 5.0 mph SE8.0 kmh SE 8.0 mph12.9 kmh 29.96 in1014.6 mb 0.00 in0.0 mm 0.00 in/hr0.0 mm/hr 0.00 in0.0 mm
07:50 PM 77.1°F25.1°C 64.4°F18.0°C 65% 6.0 mph SE9.7 kmh SE 8.0 mph12.9 kmh 29.96 in1014.6 mb 0.00 in0.0 mm 0.00 in/hr0.0 mm/hr 0.00 in0.0 mm
07:55 PM 76.5°F24.7°C 64.7°F18.2°C 67% 8.0 mph SE12.9 kmh SE 10.0 mph16.1 kmh 29.96 in1014.6 mb 0.00 in0.0 mm 0.00 in/hr0.0 mm/hr 0.00 in0.0 mm
08:00 PM 76.1°F24.5°C 64.8°F18.2°C 68% 8.0 mph SE12.9 kmh SE 8.0 mph12.9 kmh 29.96 in1014.6 mb 0.00 in0.0 mm 0.00 in/hr0.0 mm/hr 0.00 in0.0 mm
08:05 PM 75.7°F24.3°C 64.4°F18.0°C 68% 5.0 mph SE8.0 kmh SE 8.0 mph12.9 kmh 29.96 in1014.6 mb 0.00 in0.0 mm 0.00 in/hr0.0 mm/hr 0.00 in0.0 mm
08:10 PM 75.2°F24.0°C 64.8°F18.2°C 70% 5.0 mph SE8.0 kmh SE 7.0 mph11.3 kmh 29.96 in1014.6 mb 0.00 in0.0 mm 0.00 in/hr0.0 mm/hr 0.00 in0.0 mm
08:15 PM 74.9°F23.8°C 64.5°F18.1°C 70% 4.0 mph ESE6.4 kmh ESE 8.0 mph12.9 kmh 29.96 in1014.6 mb 0.00 in0.0 mm 0.00 in/hr0.0 mm/hr 0.00 in0.0 mm
08:20 PM 74.6°F23.7°C 64.6°F18.1°C 71% 7.0 mph ESE11.3 kmh ESE 7.0 mph11.3 kmh 29.97 in1014.9 mb 0.00 in0.0 mm 0.00 in/hr0.0 mm/hr 0.00 in0.0 mm
08:25 PM 74.2°F23.4°C 64.6°F18.1°C 72% 6.0 mph SE9.7 kmh SE 11.0 mph17.7 kmh 29.97 in1014.9 mb 0.00 in0.0 mm 0.00 in/hr0.0 mm/hr 0.00 in0.0 mm
08:30 PM 74.0°F23.3°C 64.8°F18.2°C 73% 5.0 mph ESE8.0 kmh ESE 9.0 mph14.5 kmh 29.97 in1014.9 mb 0.00 in0.0 mm 0.00 in/hr0.0 mm/hr 0.00 in0.0 mm
08:35 PM 73.9°F23.3°C 64.7°F18.2°C 73% 6.0 mph SE9.7 kmh SE 9.0 mph14.5 kmh 29.97 in1014.9 mb 0.00 in0.0 mm 0.00 in/hr0.0 mm/hr 0.00 in0.0 mm
08:40 PM 73.7°F23.2°C 64.5°F18.1°C 73% 5.0 mph SE8.0 kmh SE 6.0 mph9.7 kmh 29.98 in1015.2 mb 0.00 in0.0 mm 0.00 in/hr0.0 mm/hr 0.00 in0.0 mm
08:45 PM 73.4°F23.0°C 64.6°F18.1°C 74% 4.0 mph SE6.4 kmh SE 7.0 mph11.3 kmh 29.98 in1015.2 mb 0.00 in0.0 mm 0.00 in/hr0.0 mm/hr 0.00 in0.0 mm
08:50 PM 73.3°F22.9°C 64.5°F18.1°C 74% 6.0 mph SE9.7 kmh SE 6.0 mph9.7 kmh 29.98 in1015.2 mb 0.00 in0.0 mm 0.00 in/hr0.0 mm/hr 0.00 in0.0 mm
08:55 PM 73.1°F22.8°C 64.3°F17.9°C 74% 5.0 mph ESE8.0 kmh ESE 5.0 mph8.0 kmh 29.99 in1015.6 mb 0.00 in0.0 mm 0.00 in/hr0.0 mm/hr 0.00 in0.0 mm
09:00 PM 73.0°F22.8°C 64.2°F17.9°C 74% 6.0 mph ESE9.7 kmh ESE 6.0 mph9.7 kmh 29.98 in1015.2 mb 0.00 in0.0 mm 0.00 in/hr0.0 mm/hr 0.00 in0.0 mm
09:05 PM 72.9°F22.7°C 64.5°F18.1°C 75% 7.0 mph ESE11.3 kmh ESE 8.0 mph12.9 kmh 29.99 in1015.6 mb 0.00 in0.0 mm 0.00 in/hr0.0 mm/hr 0.00 in0.0 mm
09:10 PM 72.7°F22.6°C 64.3°F17.9°C 75% 6.0 mph ESE9.7 kmh ESE 7.0 mph11.3 kmh 29.99 in1015.6 mb 0.00 in0.0 mm 0.00 in/hr0.0 mm/hr 0.00 in0.0 mm
09:15 PM 72.5°F22.5°C 64.1°F17.8°C 75% 4.0 mph ESE6.4 kmh ESE 5.0 mph8.0 kmh 30.00 in1015.9 mb 0.00 in0.0 mm 0.00 in/hr0.0 mm/hr 0.00 in0.0 mm
09:20 PM 72.5°F22.5°C 64.1°F17.8°C 75% 2.0 mph ESE3.2 kmh ESE 8.0 mph12.9 kmh 30.00 in1015.9 mb 0.00 in0.0 mm 0.00 in/hr0.0 mm/hr 0.00 in0.0 mm
09:25 PM 72.4°F22.4°C 64.4°F18.0°C 76% 11.0 mph SE17.7 kmh SE 12.0 mph19.3 kmh 30.00 in1015.9 mb 0.00 in0.0 mm 0.00 in/hr0.0 mm/hr 0.00 in0.0 mm
09:30 PM 72.3°F22.4°C 64.3°F17.9°C 76% 4.0 mph SE6.4 kmh SE 8.0 mph12.9 kmh 30.00 in1015.9 mb 0.00 in0.0 mm 0.00 in/hr0.0 mm/hr 0.00 in0.0 mm
09:35 PM 72.1°F22.3°C 64.1°F17.8°C 76% 2.0 mph ESE3.2 kmh ESE 6.0 mph9.7 kmh 30.00 in1015.9 mb 0.00 in0.0 mm 0.00 in/hr0.0 mm/hr 0.00 in0.0 mm
09:40 PM 72.0°F22.2°C 64.0°F17.8°C 76% 6.0 mph ESE9.7 kmh ESE 8.0 mph12.9 kmh 30.00 in1015.9 mb 0.00 in0.0 mm 0.00 in/hr0.0 mm/hr 0.00 in0.0 mm
09:45 PM 71.8°F22.1°C 64.2°F17.9°C 77% 1.0 mph ESE1.6 kmh ESE 4.0 mph6.4 kmh 30.00 in1015.9 mb 0.00 in0.0 mm 0.00 in/hr0.0 mm/hr 0.00 in0.0 mm
09:50 PM 71.7°F22.1°C 64.1°F17.8°C 77% 8.0 mph ESE12.9 kmh ESE 8.0 mph12.9 kmh 30.00 in1015.9 mb 0.00 in0.0 mm 0.00 in/hr0.0 mm/hr 0.00 in0.0 mm
09:55 PM 71.5°F21.9°C 63.9°F17.7°C 77% 4.0 mph ESE6.4 kmh ESE 6.0 mph9.7 kmh 30.01 in1016.3 mb 0.00 in0.0 mm 0.00 in/hr0.0 mm/hr 0.00 in0.0 mm
10:00 PM 71.4°F21.9°C 63.8°F17.7°C 77% 2.0 mph ESE3.2 kmh ESE 6.0 mph9.7 kmh 30.00 in1015.9 mb 0.00 in0.0 mm 0.00 in/hr0.0 mm/hr 0.00 in0.0 mm
10:05 PM 71.2°F21.8°C 63.6°F17.6°C 77% 4.0 mph ESE6.4 kmh ESE 5.0 mph8.0 kmh 30.01 in1016.3 mb 0.00 in0.0 mm 0.00 in/hr0.0 mm/hr 0.00 in0.0 mm
10:10 PM 71.1°F21.7°C 63.9°F17.7°C 78% 5.0 mph ESE8.0 kmh ESE 7.0 mph11.3 kmh 30.01 in1016.3 mb 0.00 in0.0 mm 0.00 in/hr0.0 mm/hr 0.00 in0.0 mm
10:15 PM 71.0°F21.7°C 63.8°F17.7°C 78% 2.0 mph ESE3.2 kmh ESE 4.0 mph6.4 kmh 30.01 in1016.3 mb 0.00 in0.0 mm 0.00 in/hr0.0 mm/hr 0.00 in0.0 mm
10:20 PM 70.8°F21.6°C 63.6°F17.6°C 78% 2.0 mph ESE3.2 kmh ESE 6.0 mph9.7 kmh 30.00 in1015.9 mb 0.00 in0.0 mm 0.00 in/hr0.0 mm/hr 0.00 in0.0 mm
10:25 PM 70.6°F21.4°C 63.4°F17.4°C 78% 1.0 mph ESE1.6 kmh ESE 5.0 mph8.0 kmh 30.01 in1016.3 mb 0.00 in0.0 mm 0.00 in/hr0.0 mm/hr 0.00 in0.0 mm
10:30 PM 70.6°F21.4°C 63.4°F17.4°C 78% 5.0 mph ESE8.0 kmh ESE 7.0 mph11.3 kmh 30.00 in1015.9 mb 0.00 in0.0 mm 0.00 in/hr0.0 mm/hr 0.00 in0.0 mm
10:35 PM 70.4°F21.3°C 63.6°F17.6°C 79% 4.0 mph ESE6.4 kmh ESE 6.0 mph9.7 kmh 30.00 in1015.9 mb 0.00 in0.0 mm 0.00 in/hr0.0 mm/hr 0.00 in0.0 mm
10:40 PM 70.3°F21.3°C 63.5°F17.5°C 79% 4.0 mph ESE6.4 kmh ESE 8.0 mph12.9 kmh 30.00 in1015.9 mb 0.00 in0.0 mm 0.00 in/hr0.0 mm/hr 0.00 in0.0 mm
10:45 PM 70.2°F21.2°C 63.4°F17.4°C 79% 6.0 mph ESE9.7 kmh ESE 6.0 mph9.7 kmh 30.00 in1015.9 mb 0.00 in0.0 mm 0.00 in/hr0.0 mm/hr 0.00 in0.0 mm
10:50 PM 70.1°F21.2°C 62.9°F17.2°C 78% 4.0 mph ESE6.4 kmh ESE 9.0 mph14.5 kmh 30.00 in1015.9 mb 0.00 in0.0 mm 0.00 in/hr0.0 mm/hr 0.00 in0.0 mm
10:55 PM 69.9°F21.1°C 62.7°F17.1°C 78% 2.0 mph ESE3.2 kmh ESE 5.0 mph8.0 kmh 30.00 in1015.9 mb 0.00 in0.0 mm 0.00 in/hr0.0 mm/hr 0.00 in0.0 mm
11:00 PM 69.7°F20.9°C 62.9°F17.2°C 79% 2.0 mph ESE3.2 kmh ESE 5.0 mph8.0 kmh 30.00 in1015.9 mb 0.00 in0.0 mm 0.00 in/hr0.0 mm/hr 0.00 in0.0 mm
11:05 PM 69.7°F20.9°C 62.9°F17.2°C 79% 5.0 mph ESE8.0 kmh ESE 11.0 mph17.7 kmh 30.00 in1015.9 mb 0.00 in0.0 mm 0.00 in/hr0.0 mm/hr 0.00 in0.0 mm
11:10 PM 69.7°F20.9°C 62.9°F17.2°C 79% 5.0 mph ESE8.0 kmh ESE 7.0 mph11.3 kmh 30.00 in1015.9 mb 0.00 in0.0 mm 0.00 in/hr0.0 mm/hr 0.00 in0.0 mm
11:15 PM 69.6°F20.9°C 62.8°F17.1°C 79% 4.0 mph ESE6.4 kmh ESE 6.0 mph9.7 kmh 30.00 in1015.9 mb 0.00 in0.0 mm 0.00 in/hr0.0 mm/hr 0.00 in0.0 mm
11:20 PM 69.5°F20.8°C 62.7°F17.1°C 79% 5.0 mph ESE8.0 kmh ESE 9.0 mph14.5 kmh 30.00 in1015.9 mb 0.00 in0.0 mm 0.00 in/hr0.0 mm/hr 0.00 in0.0 mm
11:25 PM 69.4°F20.8°C 62.6°F17.0°C 79% 2.0 mph ESE3.2 kmh ESE 6.0 mph9.7 kmh 30.00 in1015.9 mb 0.00 in0.0 mm 0.00 in/hr0.0 mm/hr 0.00 in0.0 mm
11:30 PM 69.3°F20.7°C 62.5°F16.9°C 79% 1.0 mph ESE1.6 kmh ESE 7.0 mph11.3 kmh 30.00 in1015.9 mb 0.00 in0.0 mm 0.00 in/hr0.0 mm/hr 0.00 in0.0 mm
11:35 PM 69.2°F20.7°C 62.4°F16.9°C 79% 4.0 mph ESE6.4 kmh ESE 7.0 mph11.3 kmh 30.00 in1015.9 mb 0.00 in0.0 mm 0.00 in/hr0.0 mm/hr 0.00 in0.0 mm
11:40 PM 69.2°F20.7°C 62.4°F16.9°C 79% 7.0 mph ESE11.3 kmh ESE 8.0 mph12.9 kmh 30.01 in1016.3 mb 0.00 in0.0 mm 0.00 in/hr0.0 mm/hr 0.00 in0.0 mm
11:45 PM 69.1°F20.6°C 62.3°F16.8°C 79% 5.0 mph ESE8.0 kmh ESE 7.0 mph11.3 kmh 30.01 in1016.3 mb 0.00 in0.0 mm 0.00 in/hr0.0 mm/hr 0.00 in0.0 mm
11:50 PM 68.9°F20.5°C 62.1°F16.7°C 79% 4.0 mph ESE6.4 kmh ESE 5.0 mph8.0 kmh 30.01 in1016.3 mb 0.00 in0.0 mm 0.00 in/hr0.0 mm/hr 0.00 in0.0 mm
11:55 PM 68.8°F20.4°C 62.0°F16.7°C 79% 6.0 mph ESE9.7 kmh ESE 8.0 mph12.9 kmh 30.01 in1016.3 mb 0.00 in0.0 mm 0.00 in/hr0.0 mm/hr 0.00 in0.0 mm